Time;durP1;ratioP1;P1;durP2;ratioP2;P2;SDS_P1;SDS_P2;PMS_P1;PMS_P2;Temp;Humidity;BMP_temperature;BMP_pressure;BME280_temperature;BME280_humidity;BME280_pressure;Samples;Min_cycle;Max_cycle;Signal;HPM_P1;HPM_P2
2021/03/14 00:00:31;;;;;;;4.82;1.42;;;4.40;81.30;;;;;;5048773;28;20878;-82
2021/03/14 00:02:57;;;;;;;12.60;1.77;;;4.40;81.10;;;;;;5047071;28;20400;-82
2021/03/14 00:05:23;;;;;;;4.95;1.60;;;4.40;81.70;;;;;;5048761;28;20388;-84
2021/03/14 00:07:48;;;;;;;6.03;1.58;;;4.40;81.60;;;;;;5048118;28;20886;-81
2021/03/14 00:10:14;;;;;;;4.03;1.70;;;4.40;82.10;;;;;;5047307;28;20922;-82
2021/03/14 00:12:40;;;;;;;3.92;1.70;;;4.30;82.20;;;;;;5048482;28;20867;-82
2021/03/14 00:15:07;;;;;;;5.13;1.80;;;4.30;82.50;;;;;;5050985;28;20383;-81
2021/03/14 00:17:33;;;;;;;8.68;1.58;;;4.30;82.50;;;;;;5051059;28;20848;-82
2021/03/14 00:19:58;;;;;;;4.05;1.60;;;4.30;82.50;;;;;;5052641;28;20393;-81
2021/03/14 00:22:24;;;;;;;7.03;1.57;;;4.30;82.90;;;;;;5052781;28;20424;-82
2021/03/14 00:24:49;;;;;;;5.40;1.57;;;4.30;82.50;;;;;;5052388;28;20460;-82
2021/03/14 00:27:15;;;;;;;4.25;1.60;;;4.40;82.20;;;;;;5052303;28;20393;-82
2021/03/14 00:29:40;;;;;;;5.28;1.33;;;4.40;82.20;;;;;;5050758;28;20393;-82
2021/03/14 00:32:06;;;;;;;9.02;2.47;;;4.30;82.50;;;;;;5052569;28;20390;-82
2021/03/14 00:34:32;;;;;;;6.80;1.50;;;4.20;82.70;;;;;;5052002;28;20408;-80
2021/03/14 00:36:57;;;;;;;5.63;1.45;;;4.20;82.60;;;;;;5052355;28;20408;-82
2021/03/14 00:39:23;;;;;;;4.88;1.40;;;4.10;82.80;;;;;;5052004;28;20417;-82
2021/03/14 00:41:49;;;;;;;5.47;1.63;;;4.10;82.80;;;;;;5052262;28;20389;-82
2021/03/14 00:44:14;;;;;;;7.72;1.55;;;4.00;83.50;;;;;;5052028;28;20386;-82
2021/03/14 00:46:40;;;;;;;5.13;1.20;;;4.00;83.30;;;;;;5049535;28;20423;-82
2021/03/14 00:49:06;;;;;;;3.80;1.47;;;4.00;83.20;;;;;;5052153;28;20389;-82
2021/03/14 00:51:31;;;;;;;6.70;2.40;;;4.00;83.10;;;;;;5051846;28;20424;-82
2021/03/14 00:53:58;;;;;;;4.80;1.50;;;4.00;83.10;;;;;;5051919;28;20720;-82
2021/03/14 00:56:24;;;;;;;5.50;1.40;;;3.90;83.70;;;;;;5051674;28;20464;-79
2021/03/14 00:58:50;;;;;;;6.65;1.63;;;3.90;84.00;;;;;;5050394;28;20492;-83
2021/03/14 01:01:15;;;;;;;6.57;1.60;;;3.90;84.40;;;;;;5051427;28;20393;-82
2021/03/14 01:03:41;;;;;;;9.45;1.80;;;3.80;84.60;;;;;;5051868;28;20380;-82
2021/03/14 01:06:06;;;;;;;4.00;1.75;;;3.80;84.60;;;;;;5051642;28;20400;-83
2021/03/14 01:08:32;;;;;;;4.90;1.80;;;3.80;84.70;;;;;;5051325;28;20381;-83
2021/03/14 01:10:58;;;;;;;5.80;1.67;;;3.80;84.80;;;;;;5051201;28;20648;-82
2021/03/14 01:13:23;;;;;;;6.90;2.33;;;3.80;84.80;;;;;;5051691;28;20382;-83
2021/03/14 01:15:49;;;;;;;6.50;2.10;;;3.80;85.00;;;;;;5050036;28;20384;-82
2021/03/14 01:18:14;;;;;;;8.95;1.88;;;3.90;84.70;;;;;;5050612;28;20413;-82
2021/03/14 01:20:40;;;;;;;7.65;2.30;;;3.80;84.80;;;;;;5051417;28;20381;-82
2021/03/14 01:23:05;;;;;;;7.35;1.98;;;3.80;84.90;;;;;;5050864;28;20396;-83
2021/03/14 01:25:31;;;;;;;5.10;2.00;;;3.90;84.80;;;;;;5051086;28;20381;-82
2021/03/14 01:27:56;;;;;;;6.20;2.28;;;3.80;84.90;;;;;;5049035;28;20397;-82
2021/03/14 01:30:22;;;;;;;6.90;1.97;;;3.90;84.60;;;;;;5051479;28;20381;-83
2021/03/14 01:32:48;;;;;;;5.13;2.00;;;3.80;84.90;;;;;;5050942;28;20386;-82
2021/03/14 01:35:16;;;;;;;8.38;1.60;;;3.90;85.10;;;;;;5050131;28;20535;-82
2021/03/14 01:37:42;;;;;;;7.28;2.03;;;3.80;84.90;;;;;;5048817;28;20906;-83
2021/03/14 01:40:09;;;;;;;10.37;2.30;;;3.90;84.90;;;;;;5051249;28;20392;-82
2021/03/14 01:42:34;;;;;;;9.95;2.10;;;3.90;85.10;;;;;;5050610;28;20401;-82
2021/03/14 01:45:01;;;;;;;8.73;2.23;;;3.90;85.00;;;;;;5051297;28;20389;-83
2021/03/14 01:47:36;;;;;;;14.68;2.42;;;3.90;85.10;;;;;;5050508;28;20385;-82
2021/03/14 01:50:23;;;;;;;8.40;2.40;;;3.90;84.70;;;;;;5050655;28;20408;-82
2021/03/14 01:52:51;;;;;;;10.50;2.83;;;3.90;84.80;;;;;;5050720;28;20430;-82
2021/03/14 01:55:18;;;;;;;8.13;2.58;;;3.90;84.60;;;;;;5049432;28;20397;-83
2021/03/14 01:57:45;;;;;;;8.50;2.60;;;3.90;84.90;;;;;;5049107;28;20406;-82
2021/03/14 02:00:14;;;;;;;6.20;2.70;;;3.90;84.70;;;;;;5050463;28;20385;-82
2021/03/14 02:02:40;;;;;;;10.00;2.80;;;3.90;84.50;;;;;;5050587;28;20779;-82
2021/03/14 02:05:08;;;;;;;12.90;2.47;;;3.90;84.50;;;;;;5050306;28;20386;-83
2021/03/14 02:07:34;;;;;;;11.18;3.00;;;3.90;84.80;;;;;;5049808;28;20390;-82
2021/03/14 02:10:00;;;;;;;11.88;3.05;;;3.90;84.80;;;;;;5050403;28;20377;-82
2021/03/14 02:12:28;;;;;;;10.15;2.80;;;3.90;84.70;;;;;;5049131;28;20385;-83
2021/03/14 02:14:59;;;;;;;8.63;2.28;;;3.90;84.50;;;;;;5050271;28;20432;-80
2021/03/14 02:17:30;;;;;;;8.07;2.90;;;4.00;84.70;;;;;;5048458;28;20549;-82
2021/03/14 02:20:07;;;;;;;9.47;2.67;;;4.00;84.70;;;;;;5049092;28;20906;-82
2021/03/14 02:22:33;;;;;;;11.35;2.90;;;4.00;84.50;;;;;;5048569;28;20394;-82
2021/03/14 02:25:02;;;;;;;15.83;3.10;;;3.90;85.30;;;;;;5050595;28;20432;-82
2021/03/14 02:27:27;;;;;;;11.25;3.25;;;3.90;85.30;;;;;;5050026;28;20381;-83
2021/03/14 02:29:54;;;;;;;10.63;2.42;;;4.00;85.00;;;;;;5049417;28;20783;-82
2021/03/14 02:32:21;;;;;;;10.10;3.28;;;4.00;84.70;;;;;;5050145;28;20747;-83
2021/03/14 02:34:53;;;;;;;9.60;2.47;;;4.00;84.70;;;;;;5049872;28;20468;-83
2021/03/14 02:37:20;;;;;;;7.70;2.10;;;4.00;85.10;;;;;;5047739;28;20448;-82
2021/03/14 02:39:46;;;;;;;10.70;2.67;;;4.10;84.60;;;;;;5049664;28;20969;-82
2021/03/14 02:42:13;;;;;;;9.90;2.72;;;4.10;85.00;;;;;;5049904;28;20384;-83
2021/03/14 02:44:47;;;;;;;11.30;2.80;;;4.00;85.10;;;;;;5048481;28;20478;-83
2021/03/14 02:47:13;;;;;;;11.48;3.15;;;4.00;85.30;;;;;;5049441;28;20398;-82
2021/03/14 02:49:39;;;;;;;12.33;3.07;;;4.10;85.20;;;;;;5048465;28;20798;-82
2021/03/14 02:52:08;;;;;;;10.68;3.38;;;4.10;85.30;;;;;;5049981;28;20392;-83
2021/03/14 02:54:34;;;;;;;12.13;3.10;;;4.10;85.60;;;;;;5048089;28;20421;-82
2021/03/14 02:57:01;;;;;;;9.18;2.90;;;4.10;85.80;;;;;;5049214;28;20411;-82
2021/03/14 02:59:27;;;;;;;10.93;2.80;;;4.00;86.40;;;;;;5048355;28;20446;-82
2021/03/14 03:01:54;;;;;;;10.18;2.92;;;4.00;86.50;;;;;;5049072;28;20400;-82
2021/03/14 03:04:23;;;;;;;12.90;3.35;;;4.00;86.80;;;;;;5048333;28;20385;-81
2021/03/14 03:06:49;;;;;;;9.07;2.80;;;4.00;86.80;;;;;;5047428;28;20425;-82
2021/03/14 03:09:16;;;;;;;8.05;2.92;;;4.00;86.80;;;;;;5050017;28;20469;-82
2021/03/14 03:11:44;;;;;;;11.77;3.58;;;4.00;86.70;;;;;;5049379;28;20473;-82
2021/03/14 03:14:14;;;;;;;11.45;2.88;;;4.10;86.40;;;;;;5049904;28;20385;-82
2021/03/14 03:16:41;;;;;;;11.80;3.22;;;4.10;86.00;;;;;;5047543;28;21032;-81
2021/03/14 03:19:10;;;;;;;14.05;3.22;;;4.10;86.00;;;;;;5047965;28;20940;-82
2021/03/14 03:21:37;;;;;;;10.60;3.05;;;4.10;85.90;;;;;;5049268;28;20397;-82
2021/03/14 03:24:03;;;;;;;10.55;3.35;;;4.10;85.80;;;;;;5047513;28;20390;-82
2021/03/14 03:26:28;;;;;;;8.98;3.20;;;4.10;85.90;;;;;;5048828;28;20746;-82
2021/03/14 03:28:54;;;;;;;12.07;3.40;;;4.10;85.80;;;;;;5048552;28;20385;-82
2021/03/14 03:31:19;;;;;;;5.47;3.08;;;4.10;86.20;;;;;;5049213;28;20731;-80
2021/03/14 03:33:45;;;;;;;11.63;2.80;;;4.10;85.80;;;;;;5048837;28;20859;-82
2021/03/14 03:36:10;;;;;;;10.95;3.17;;;4.20;85.70;;;;;;5049070;28;20385;-82
2021/03/14 03:38:36;;;;;;;11.65;3.00;;;4.10;86.20;;;;;;5047779;28;20436;-82
2021/03/14 03:41:02;;;;;;;8.95;2.70;;;4.20;85.70;;;;;;5048903;28;20386;-82
2021/03/14 03:43:32;;;;;;;9.43;2.92;;;4.10;86.00;;;;;;5048630;28;20385;-82
2021/03/14 03:46:02;;;;;;;6.63;2.97;;;4.10;85.90;;;;;;5048964;28;20385;-82
2021/03/14 03:48:42;;;;;;;8.77;2.97;;;4.10;86.00;;;;;;5047916;28;20388;-85
2021/03/14 03:51:08;;;;;;;9.77;3.25;;;4.20;85.60;;;;;;5048767;28;20386;-82
2021/03/14 03:53:37;;;;;;;13.15;3.33;;;4.10;85.80;;;;;;5047589;28;20424;-82
2021/03/14 03:56:03;;;;;;;13.13;3.05;;;4.10;86.10;;;;;;5048606;28;20390;-82
2021/03/14 03:58:30;;;;;;;10.77;3.07;;;4.10;85.90;;;;;;5048420;28;20420;-82
2021/03/14 04:00:56;;;;;;;10.52;3.10;;;4.10;85.90;;;;;;5048357;28;20393;-82
2021/03/14 04:03:24;;;;;;;11.13;3.30;;;4.00;85.90;;;;;;5048916;28;20381;-82
2021/03/14 04:05:55;;;;;;;11.73;3.67;;;4.10;86.10;;;;;;5047446;28;20551;-82
2021/03/14 04:08:21;;;;;;;9.25;2.80;;;4.10;86.00;;;;;;5048571;28;20789;-82
2021/03/14 04:10:48;;;;;;;9.27;3.20;;;4.10;85.70;;;;;;5048500;28;20385;-82
2021/03/14 04:13:14;;;;;;;11.88;3.08;;;4.10;85.90;;;;;;5049021;28;20991;-82
2021/03/14 04:15:40;;;;;;;11.80;3.25;;;4.00;85.90;;;;;;5048646;28;20390;-82
2021/03/14 04:18:08;;;;;;;12.03;2.97;;;4.00;86.00;;;;;;5046824;28;20416;-82
2021/03/14 04:20:37;;;;;;;15.73;3.25;;;4.00;85.80;;;;;;5048823;28;20942;-82
2021/03/14 04:23:06;;;;;;;9.25;3.10;;;4.10;85.40;;;;;;5047012;28;20404;-82
2021/03/14 04:25:33;;;;;;;9.48;2.55;;;4.00;85.90;;;;;;5048439;28;20428;-82
2021/03/14 04:28:00;;;;;;;7.28;2.58;;;4.00;85.50;;;;;;5046506;28;20389;-81
2021/03/14 04:30:27;;;;;;;11.70;3.08;;;4.00;85.70;;;;;;5048667;28;20393;-81
2021/03/14 04:32:54;;;;;;;9.25;2.45;;;4.00;85.70;;;;;;5048209;28;20408;-82
2021/03/14 04:35:20;;;;;;;11.70;2.78;;;4.00;85.60;;;;;;5048369;28;20388;-81
2021/03/14 04:37:47;;;;;;;12.83;2.60;;;3.90;85.70;;;;;;5047621;28;20497;-82
2021/03/14 04:40:14;;;;;;;11.35;2.78;;;3.90;85.90;;;;;;5048611;28;20797;-82
2021/03/14 04:42:42;;;;;;;9.07;2.70;;;3.90;85.70;;;;;;5046659;28;20386;-82
2021/03/14 04:45:10;;;;;;;13.40;2.67;;;3.90;85.90;;;;;;5048577;28;20389;-81
2021/03/14 04:47:38;;;;;;;11.87;3.00;;;3.90;85.80;;;;;;5047896;28;20377;-82
2021/03/14 04:50:04;;;;;;;8.95;2.83;;;3.90;86.10;;;;;;5048817;28;20445;-81
2021/03/14 04:52:30;;;;;;;13.23;2.90;;;3.90;85.90;;;;;;5046940;28;20832;-82
2021/03/14 04:54:59;;;;;;;10.77;2.72;;;3.90;85.80;;;;;;5046745;28;20390;-82
2021/03/14 04:57:24;;;;;;;14.88;2.92;;;3.90;85.80;;;;;;5047813;28;20452;-82
2021/03/14 04:59:51;;;;;;;11.15;2.80;;;3.80;86.30;;;;;;5046792;28;20390;-82
2021/03/14 05:02:17;;;;;;;9.50;2.75;;;3.80;86.40;;;;;;5050650;28;20801;-81
2021/03/14 05:04:46;;;;;;;14.55;2.97;;;3.70;86.10;;;;;;5050549;28;20397;-82
2021/03/14 05:07:12;;;;;;;11.83;3.03;;;3.80;86.30;;;;;;5050192;28;20397;-82
2021/03/14 05:09:40;;;;;;;9.23;2.10;;;3.80;86.40;;;;;;5050138;28;20389;-82
2021/03/14 05:12:07;;;;;;;9.50;2.63;;;3.80;86.40;;;;;;5051262;28;20381;-81
2021/03/14 05:14:35;;;;;;;15.85;2.90;;;3.80;86.20;;;;;;5050367;28;20386;-82
2021/03/14 05:17:02;;;;;;;11.43;3.05;;;3.70;86.50;;;;;;5050791;28;20805;-81
2021/03/14 05:19:30;;;;;;;12.52;2.50;;;3.70;86.40;;;;;;5050284;28;20455;-81
2021/03/14 05:21:56;;;;;;;11.15;2.47;;;3.70;86.50;;;;;;5051062;28;20417;-81
2021/03/14 05:24:22;;;;;;;10.88;2.78;;;3.70;86.70;;;;;;5051403;28;20393;-81
2021/03/14 05:26:48;;;;;;;16.70;3.17;;;3.70;86.80;;;;;;5049619;28;20401;-81
2021/03/14 05:29:27;;;;;;;10.77;2.63;;;3.60;86.90;;;;;;5050896;28;20480;-81
2021/03/14 05:31:55;;;;;;;17.40;3.80;;;3.60;87.00;;;;;;5051043;28;20413;-82
2021/03/14 05:34:21;;;;;;;11.75;3.00;;;3.60;86.90;;;;;;5049786;28;20420;-82
2021/03/14 05:36:47;;;;;;;10.73;2.88;;;3.60;87.00;;;;;;5050664;28;20893;-81
2021/03/14 05:39:13;;;;;;;8.30;3.30;;;3.60;86.90;;;;;;5050931;28;20451;-81
2021/03/14 05:41:40;;;;;;;15.20;3.53;;;3.60;86.90;;;;;;5051260;28;20448;-82
2021/03/14 05:44:06;;;;;;;10.77;3.35;;;3.70;86.80;;;;;;5051021;28;20385;-81
2021/03/14 05:46:33;;;;;;;14.55;3.05;;;3.60;87.30;;;;;;5050645;28;20384;-82
2021/03/14 05:48:58;;;;;;;11.00;3.03;;;3.60;87.00;;;;;;5049323;28;20894;-82
2021/03/14 05:51:30;;;;;;;15.03;3.73;;;3.60;87.30;;;;;;5049577;28;20390;-82
2021/03/14 05:53:58;;;;;;;12.00;3.13;;;3.60;86.90;;;;;;5050735;28;20386;-81
2021/03/14 05:56:24;;;;;;;11.37;2.90;;;3.60;87.00;;;;;;5050722;28;20863;-80
2021/03/14 05:58:51;;;;;;;14.88;3.65;;;3.70;87.20;;;;;;5050299;28;20459;-81
2021/03/14 06:01:21;;;;;;;11.10;3.10;;;3.60;87.30;;;;;;5049428;28;20393;-81
2021/03/14 06:03:47;;;;;;;10.55;3.33;;;3.70;87.00;;;;;;5050687;28;20374;-82
2021/03/14 06:06:14;;;;;;;12.35;3.33;;;3.70;86.80;;;;;;5050647;28;20843;-81
2021/03/14 06:08:40;;;;;;;13.73;3.33;;;3.70;86.90;;;;;;5048961;28;20882;-81
2021/03/14 06:11:07;;;;;;;6.78;2.78;;;3.70;86.60;;;;;;5048965;28;20393;-81
2021/03/14 06:13:34;;;;;;;13.40;3.00;;;3.70;86.70;;;;;;5049348;28;20916;-81
2021/03/14 06:16:00;;;;;;;9.63;2.88;;;3.70;86.70;;;;;;5050342;28;20568;-82
2021/03/14 06:18:26;;;;;;;14.47;4.03;;;3.70;86.70;;;;;;5048773;28;20409;-82
2021/03/14 06:20:52;;;;;;;13.73;3.78;;;3.70;86.60;;;;;;5048937;28;20389;-81
2021/03/14 06:23:19;;;;;;;15.73;4.57;;;3.70;86.70;;;;;;5050288;28;20798;-81
2021/03/14 06:25:48;;;;;;;18.40;4.57;;;3.80;86.90;;;;;;5050370;28;20374;-82
2021/03/14 06:28:15;;;;;;;13.23;3.95;;;3.80;86.40;;;;;;5050039;28;20940;-82
2021/03/14 06:30:41;;;;;;;17.23;4.43;;;3.80;86.70;;;;;;5049967;28;20433;-82
2021/03/14 06:33:12;;;;;;;10.32;3.58;;;3.80;86.80;;;;;;5048755;28;20378;-81
2021/03/14 06:35:42;;;;;;;15.05;4.88;;;3.80;86.50;;;;;;5050230;28;20401;-81
2021/03/14 06:38:24;;;;;;;12.07;3.67;;;3.80;86.70;;;;;;5049349;28;20409;-81
2021/03/14 06:40:53;;;;;;;15.70;3.90;;;3.80;86.90;;;;;;5050166;28;20886;-82
2021/03/14 06:43:19;;;;;;;12.48;4.30;;;3.80;86.50;;;;;;5049837;28;20461;-81
2021/03/14 06:45:45;;;;;;;15.13;4.27;;;3.80;86.80;;;;;;5050154;28;20390;-81
2021/03/14 06:48:11;;;;;;;14.73;4.60;;;3.80;86.60;;;;;;5049156;28;20389;-82
2021/03/14 06:50:40;;;;;;;11.47;3.90;;;3.80;86.50;;;;;;5049814;28;20438;-82
2021/03/14 06:53:14;;;;;;;12.52;4.03;;;3.80;86.60;;;;;;5049347;28;20439;-82
2021/03/14 06:55:40;;;;;;;14.13;4.38;;;3.80;86.80;;;;;;5049767;28;20421;-81
2021/03/14 06:58:21;;;;;;;16.33;4.75;;;3.80;86.50;;;;;;5049060;28;20452;-82
2021/03/14 07:01:12;;;;;;;14.68;4.07;;;3.90;86.70;;;;;;5049528;28;20389;-82
2021/03/14 07:03:43;;;;;;;18.13;4.65;;;3.90;86.50;;;;;;5049652;28;20468;-82
2021/03/14 07:06:19;;;;;;;17.27;4.80;;;3.90;86.60;;;;;;5049550;28;20747;-81
2021/03/14 07:08:46;;;;;;;12.13;4.10;;;3.90;86.60;;;;;;5048773;28;20385;-81
2021/03/14 07:11:12;;;;;;;15.07;4.17;;;3.90;86.40;;;;;;5049337;28;20448;-81
2021/03/14 07:13:39;;;;;;;13.60;4.18;;;3.90;86.20;;;;;;5049393;28;20392;-82
2021/03/14 07:16:05;;;;;;;11.45;3.78;;;3.90;86.60;;;;;;5048974;28;20866;-82
2021/03/14 07:18:34;;;;;;;10.45;3.35;;;3.90;86.20;;;;;;5048702;28;20401;-81
2021/03/14 07:21:20;;;;;;;11.48;3.25;;;3.80;86.30;;;;;;5049095;28;20380;-82
2021/03/14 07:23:46;;;;;;;14.43;3.20;;;3.90;86.10;;;;;;5046986;28;20397;-82
2021/03/14 07:26:11;;;;;;;10.77;3.90;;;3.90;85.80;;;;;;5048833;28;20393;-82
2021/03/14 07:28:37;;;;;;;14.65;3.95;;;3.90;85.80;;;;;;5048165;28;20378;-82
2021/03/14 07:31:02;;;;;;;14.17;5.20;;;3.90;86.10;;;;;;5048570;28;20465;-82
2021/03/14 07:33:28;;;;;;;13.90;4.20;;;3.90;86.20;;;;;;5048826;28;20382;-82
2021/03/14 07:35:54;;;;;;;12.48;5.18;;;3.90;85.90;;;;;;5049009;28;20385;-82
2021/03/14 07:38:20;;;;;;;18.17;5.32;;;3.90;86.30;;;;;;5048372;28;20916;-83
2021/03/14 07:40:45;;;;;;;13.80;4.87;;;3.90;85.70;;;;;;5048751;28;20390;-81
2021/03/14 07:43:11;;;;;;;13.47;5.00;;;3.90;85.90;;;;;;5047649;28;20833;-82
2021/03/14 07:45:38;;;;;;;13.98;5.47;;;3.90;85.90;;;;;;5048156;28;20747;-81
2021/03/14 07:48:05;;;;;;;15.45;6.72;;;3.90;86.70;;;;;;5047156;28;21102;-81
2021/03/14 07:50:38;;;;;;;19.17;6.90;;;3.80;88.70;;;;;;5048537;28;20750;-80
2021/03/14 07:53:08;;;;;;;23.45;8.32;;;3.70;89.30;;;;;;5053186;28;20413;-81
2021/03/14 07:55:34;;;;;;;21.60;8.40;;;3.70;90.10;;;;;;5047119;28;20909;-81
2021/03/14 07:58:04;;;;;;;25.08;9.40;;;3.70;90.30;;;;;;5045286;28;20894;-80
2021/03/14 08:00:33;;;;;;;18.55;8.10;;;3.80;91.10;;;;;;5046912;28;20392;-80
2021/03/14 08:03:04;;;;;;;24.10;8.70;;;3.90;91.30;;;;;;5045593;28;20398;-80
2021/03/14 08:05:38;;;;;;;17.95;8.48;;;3.50;89.70;;;;;;5045535;28;20890;-80
2021/03/14 08:08:04;;;;;;;22.80;9.23;;;3.40;90.50;;;;;;5046264;28;20399;-79
2021/03/14 08:10:42;;;;;;;23.02;10.35;;;3.40;92.10;;;;;;5047119;28;20863;-80
2021/03/14 08:13:14;;;;;;;18.40;10.25;;;3.30;91.50;;;;;;5047526;28;20389;-80
2021/03/14 08:15:41;;;;;;;18.23;10.10;;;3.40;92.50;;;;;;5047754;28;20397;-80
2021/03/14 08:18:07;;;;;;;17.73;9.68;;;3.40;92.00;;;;;;5047543;28;20482;-80
2021/03/14 08:20:43;;;;;;;22.10;10.48;;;3.30;91.70;;;;;;5048371;28;20378;-80
2021/03/14 08:23:16;;;;;;;18.10;9.75;;;3.30;92.40;;;;;;5046688;28;20727;-80
2021/03/14 08:25:49;;;;;;;18.33;9.32;;;3.10;92.80;;;;;;5048092;28;20753;-79
2021/03/14 08:28:33;;;;;;;16.87;8.83;;;2.80;93.10;;;;;;5048088;28;20810;-79
2021/03/14 08:31:06;;;;;;;17.80;9.65;;;2.60;93.20;;;;;;5047622;28;20707;-79
2021/03/14 08:33:42;;;;;;;12.63;7.93;;;2.80;94.10;;;;;;5048415;28;20456;-80
2021/03/14 08:36:29;;;;;;;14.43;8.18;;;2.70;93.70;;;;;;5048776;28;20468;-80
2021/03/14 08:38:54;;;;;;;11.75;7.18;;;2.70;93.60;;;;;;5050838;28;20516;-80
2021/03/14 08:41:29;;;;;;;9.70;6.15;;;2.60;93.80;;;;;;5051747;28;20949;-80
2021/03/14 08:44:00;;;;;;;9.23;5.00;;;2.40;93.70;;;;;;5051994;28;20746;-80
2021/03/14 08:46:50;;;;;;;8.55;4.57;;;2.50;93.90;;;;;;5051324;28;20385;-80
2021/03/14 08:49:21;;;;;;;9.45;3.90;;;2.30;93.70;;;;;;5051744;28;20393;-81
2021/03/14 08:51:48;;;;;;;7.63;3.83;;;2.30;94.10;;;;;;5051885;28;20750;-81
2021/03/14 08:54:14;;;;;;;9.50;4.00;;;2.40;94.10;;;;;;5051844;28;20586;-81
2021/03/14 08:56:40;;;;;;;9.73;4.32;;;2.40;94.30;;;;;;5051450;28;20388;-81
2021/03/14 08:59:09;;;;;;;12.70;4.70;;;2.40;94.20;;;;;;5051455;28;20413;-80
2021/03/14 09:01:36;;;;;;;10.23;4.70;;;2.50;94.50;;;;;;5051702;28;20971;-81
2021/03/14 09:04:16;;;;;;;11.77;5.40;;;2.50;94.50;;;;;;5051706;28;20428;-81
2021/03/14 09:06:42;;;;;;;9.97;5.33;;;2.50;94.70;;;;;;5050014;28;20938;-81
2021/03/14 09:09:27;;;;;;;11.97;6.20;;;2.60;94.70;;;;;;5050122;28;20385;-81
2021/03/14 09:11:58;;;;;;;13.25;6.90;;;2.80;94.70;;;;;;5050478;28;20443;-81
2021/03/14 09:14:27;;;;;;;10.63;5.72;;;2.90;94.60;;;;;;5049218;28;20434;-80
2021/03/14 09:16:56;;;;;;;12.88;6.32;;;2.90;94.30;;;;;;5048847;28;20464;-81
2021/03/14 09:19:34;;;;;;;14.67;6.40;;;2.90;94.30;;;;;;5048760;28;20989;-81
2021/03/14 09:22:01;;;;;;;12.63;6.32;;;3.00;94.60;;;;;;5050595;28;20826;-81
2021/03/14 09:24:34;;;;;;;16.38;7.45;;;3.00;94.60;;;;;;5048815;28;20750;-81
2021/03/14 09:27:04;;;;;;;11.68;6.47;;;3.10;94.40;;;;;;5050254;28;20386;-81
2021/03/14 09:29:56;;;;;;;15.68;6.78;;;3.10;94.20;;;;;;5050383;28;20385;-81
2021/03/14 09:32:29;;;;;;;15.98;7.20;;;3.10;94.50;;;;;;5047522;28;20944;-81
2021/03/14 09:35:16;;;;;;;12.07;6.78;;;3.10;94.40;;;;;;5050063;28;20897;-81
2021/03/14 09:37:49;;;;;;;18.17;7.63;;;3.10;94.50;;;;;;5049536;28;20417;-81
2021/03/14 09:40:19;;;;;;;17.77;8.85;;;3.40;94.70;;;;;;5050292;28;20384;-81
2021/03/14 09:42:47;;;;;;;16.38;8.60;;;3.40;94.20;;;;;;5048531;28;20479;-80
2021/03/14 09:45:18;;;;;;;16.35;8.90;;;3.30;94.20;;;;;;5048448;28;20902;-81
2021/03/14 09:48:15;;;;;;;22.27;9.85;;;3.30;94.30;;;;;;5047636;28;20782;-81
2021/03/14 09:50:43;;;;;;;17.67;8.90;;;3.40;93.60;;;;;;5048834;28;20397;-80
2021/03/14 09:53:10;;;;;;;17.67;8.73;;;3.40;94.20;;;;;;5049990;28;20893;-81
2021/03/14 09:55:44;;;;;;;19.33;8.75;;;3.40;93.80;;;;;;5048585;28;20389;-81
2021/03/14 09:58:18;;;;;;;16.27;9.32;;;3.40;94.00;;;;;;5049570;28;20413;-81
2021/03/14 10:00:45;;;;;;;18.30;9.80;;;3.50;93.90;;;;;;5048134;28;20420;-81
2021/03/14 10:03:25;;;;;;;18.50;9.70;;;3.40;93.60;;;;;;5049822;28;20384;-81
2021/03/14 10:05:56;;;;;;;22.10;10.10;;;3.40;93.80;;;;;;5049547;28;20758;-81
2021/03/14 10:08:27;;;;;;;17.95;8.60;;;3.50;93.70;;;;;;5048252;28;20408;-81
2021/03/14 10:10:56;;;;;;;19.30;8.02;;;3.40;93.60;;;;;;5048172;28;20404;-81
2021/03/14 10:13:26;;;;;;;21.83;8.65;;;3.50;93.80;;;;;;5049696;28;20469;-81
2021/03/14 10:15:57;;;;;;;15.63;7.97;;;3.40;93.70;;;;;;5048123;28;20386;-81
2021/03/14 10:18:25;;;;;;;16.30;8.07;;;3.50;94.10;;;;;;5047486;28;20413;-81
2021/03/14 10:20:52;;;;;;;18.90;7.50;;;3.50;94.40;;;;;;5049579;28;20463;-81
2021/03/14 10:23:24;;;;;;;15.05;8.10;;;3.50;94.10;;;;;;5049291;28;20381;-81
2021/03/14 10:25:51;;;;;;;15.87;7.97;;;3.50;94.40;;;;;;5049435;28;20393;-81
2021/03/14 10:28:19;;;;;;;20.02;8.48;;;3.50;94.20;;;;;;5046912;28;20510;-80
2021/03/14 10:30:47;;;;;;;15.00;8.00;;;3.50;94.50;;;;;;5028575;28;20398;-80
2021/03/14 10:33:28;;;;;;;18.27;8.50;;;3.50;94.20;;;;;;5036781;28;20390;-80
2021/03/14 10:36:03;;;;;;;17.80;8.77;;;3.60;94.70;;;;;;5040362;28;20956;-81
2021/03/14 10:38:38;;;;;;;17.27;9.07;;;3.60;94.10;;;;;;5048289;28;20488;-80
2021/03/14 10:41:07;;;;;;;15.85;9.23;;;3.70;94.30;;;;;;5048902;28;20381;-80
2021/03/14 10:43:33;;;;;;;26.10;11.45;;;3.70;94.10;;;;;;5047747;28;20810;-81
2021/03/14 10:45:59;;;;;;;24.33;10.95;;;4.00;94.50;;;;;;5048701;28;20377;-81
2021/03/14 10:48:27;;;;;;;21.07;11.93;;;4.10;94.70;;;;;;5047532;28;20400;-81
2021/03/14 10:51:05;;;;;;;22.73;11.63;;;4.20;94.50;;;;;;5048350;28;20877;-80
2021/03/14 10:53:30;;;;;;;24.60;12.32;;;4.30;94.20;;;;;;5048924;28;20423;-80
2021/03/14 10:56:07;;;;;;;25.42;12.68;;;4.40;94.10;;;;;;5048627;28;20417;-81
2021/03/14 10:58:40;;;;;;;25.85;12.40;;;4.50;94.50;;;;;;5046006;28;20529;-81
2021/03/14 11:01:09;;;;;;;21.97;12.77;;;4.50;93.70;;;;;;5048330;28;20468;-81
2021/03/14 11:03:37;;;;;;;27.40;12.90;;;4.60;93.30;;;;;;5048429;28;20389;-81
2021/03/14 11:06:24;;;;;;;21.73;13.23;;;4.60;93.20;;;;;;5048805;28;20447;-81
2021/03/14 11:08:55;;;;;;;28.17;14.27;;;4.50;93.50;;;;;;5048648;28;20400;-81
2021/03/14 11:11:23;;;;;;;29.58;15.68;;;4.80;93.70;;;;;;5048436;28;20385;-81
2021/03/14 11:13:50;;;;;;;27.57;14.50;;;4.90;93.80;;;;;;5048843;28;20389;-81
2021/03/14 11:16:16;;;;;;;27.77;14.85;;;4.90;93.00;;;;;;5047351;28;20397;-80
2021/03/14 11:18:42;;;;;;;28.83;14.27;;;4.90;93.90;;;;;;5046195;28;20405;-81
2021/03/14 11:21:09;;;;;;;33.70;15.73;;;5.00;92.40;;;;;;5048560;28;20416;-81
2021/03/14 11:23:34;;;;;;;30.83;15.80;;;5.00;92.40;;;;;;5048016;28;20797;-80
2021/03/14 11:26:00;;;;;;;26.93;16.20;;;5.00;92.50;;;;;;5048147;28;20385;-79
2021/03/14 11:28:26;;;;;;;29.87;16.00;;;5.10;91.90;;;;;;5047862;28;20672;-80
2021/03/14 11:30:51;;;;;;;28.15;16.02;;;5.30;92.80;;;;;;5046788;28;20724;-81
2021/03/14 11:33:17;;;;;;;22.33;13.73;;;5.40;92.20;;;;;;5048602;28;20710;-81
2021/03/14 11:35:43;;;;;;;24.55;15.00;;;5.40;91.40;;;;;;5046663;28;20409;-79
2021/03/14 11:38:09;;;;;;;24.65;14.43;;;5.40;91.40;;;;;;5047632;28;20417;-79
2021/03/14 11:40:35;;;;;;;26.43;14.97;;;5.40;91.30;;;;;;5047738;28;20385;-81
2021/03/14 11:43:01;;;;;;;30.75;16.08;;;5.50;91.80;;;;;;5048549;28;20385;-81
2021/03/14 11:45:27;;;;;;;26.45;15.60;;;5.50;91.50;;;;;;5046925;28;20385;-81
2021/03/14 11:47:52;;;;;;;29.07;15.70;;;5.70;90.70;;;;;;5048211;28;20742;-81
2021/03/14 11:50:18;;;;;;;30.93;16.53;;;5.50;90.70;;;;;;5047825;28;20384;-80
2021/03/14 11:52:46;;;;;;;26.33;14.82;;;5.50;91.40;;;;;;5048093;28;20377;-81
2021/03/14 11:55:13;;;;;;;26.13;14.80;;;5.40;91.00;;;;;;5048609;28;20390;-81
2021/03/14 11:57:38;;;;;;;25.05;13.40;;;5.40;90.40;;;;;;5047351;28;20401;-81
2021/03/14 12:00:05;;;;;;;24.87;14.33;;;5.40;89.90;;;;;;5048372;28;20388;-80
2021/03/14 12:02:31;;;;;;;26.00;15.52;;;5.40;90.10;;;;;;5047635;28;20464;-80
2021/03/14 12:04:57;;;;;;;24.73;15.35;;;5.70;90.30;;;;;;5046721;28;20386;-81
2021/03/14 12:07:24;;;;;;;28.87;15.00;;;5.80;90.10;;;;;;5047439;28;20538;-80
2021/03/14 12:09:51;;;;;;;24.95;14.23;;;5.90;89.00;;;;;;5048132;28;20386;-81
2021/03/14 12:12:16;;;;;;;25.48;14.45;;;6.00;89.10;;;;;;5051548;28;20377;-81
2021/03/14 12:14:43;;;;;;;23.60;14.23;;;6.30;89.70;;;;;;5050765;28;20412;-82
2021/03/14 12:17:08;;;;;;;21.77;14.35;;;6.40;88.80;;;;;;5051551;28;20439;-81
2021/03/14 12:19:34;;;;;;;41.93;26.23;;;6.80;87.00;;;;;;5051707;28;20409;-80
2021/03/14 12:21:59;;;;;;;22.50;13.30;;;7.30;87.90;;;;;;5051797;28;20458;-81
2021/03/14 12:24:25;;;;;;;20.57;12.57;;;7.00;86.00;;;;;;5051472;28;20393;-82
2021/03/14 12:26:50;;;;;;;21.73;12.07;;;7.00;87.30;;;;;;5051414;28;20389;-82
2021/03/14 12:29:16;;;;;;;19.42;12.25;;;6.60;86.50;;;;;;5051354;28;20423;-81
2021/03/14 12:31:41;;;;;;;20.00;11.55;;;6.40;85.70;;;;;;5051623;28;20381;-82
2021/03/14 12:34:07;;;;;;;19.70;11.50;;;6.50;86.30;;;;;;5051600;28;20389;-82
2021/03/14 12:36:32;;;;;;;20.03;11.43;;;6.70;86.40;;;;;;5050928;28;20794;-81
2021/03/14 12:38:58;;;;;;;15.00;10.07;;;6.70;84.90;;;;;;5050851;28;20448;-82
2021/03/14 12:41:23;;;;;;;21.90;11.40;;;6.60;85.10;;;;;;5051281;28;20435;-82
2021/03/14 12:43:49;;;;;;;15.40;11.18;;;6.60;86.90;;;;;;5049719;28;20463;-81
2021/03/14 12:46:14;;;;;;;16.10;10.55;;;6.50;86.10;;;;;;5049659;28;20389;-82
2021/03/14 12:48:40;;;;;;;17.73;9.73;;;6.60;85.30;;;;;;5049171;28;20419;-83
2021/03/14 12:51:06;;;;;;;16.67;9.20;;;6.60;84.90;;;;;;5051756;28;20474;-83
2021/03/14 12:53:32;;;;;;;13.77;8.67;;;6.80;85.00;;;;;;5050787;28;20408;-83